sensor_id;sensor_type;location;lat;lon;timestamp;pressure;altitude;pressure_sealevel;temperature;humidity
62703;BME280;66022;50.448;18.122;2022-12-24T00:01:59;98086.50;;;5.81;89.46
62703;BME280;66022;50.448;18.122;2022-12-24T00:06:02;98083.33;;;5.81;90.43
62703;BME280;66022;50.448;18.122;2022-12-24T00:09:59;98078.59;;;5.81;91.04
62703;BME280;66022;50.448;18.122;2022-12-24T00:13:59;98076.23;;;5.79;95.08
62703;BME280;66022;50.448;18.122;2022-12-24T00:17:59;98073.05;;;5.79;90.94
62703;BME280;66022;50.448;18.122;2022-12-24T00:21:59;98069.09;;;5.80;90.41
62703;BME280;66022;50.448;18.122;2022-12-24T00:25:59;98063.53;;;5.80;91.13
62703;BME280;66022;50.448;18.122;2022-12-24T00:29:59;98056.91;;;5.82;90.83
62703;BME280;66022;50.448;18.122;2022-12-24T00:33:59;98049.89;;;5.82;93.95
62703;BME280;66022;50.448;18.122;2022-12-24T00:37:59;98043.39;;;5.85;90.85
62703;BME280;66022;50.448;18.122;2022-12-24T00:41:59;98038.53;;;5.87;91.05
62703;BME280;66022;50.448;18.122;2022-12-24T00:45:59;98036.11;;;5.88;91.52
62703;BME280;66022;50.448;18.122;2022-12-24T00:49:59;98034.22;;;5.89;90.76
62703;BME280;66022;50.448;18.122;2022-12-24T00:53:59;98034.81;;;5.89;94.51
62703;BME280;66022;50.448;18.122;2022-12-24T00:57:59;98037.27;;;5.91;90.77
62703;BME280;66022;50.448;18.122;2022-12-24T01:01:59;98038.30;;;5.94;90.72
62703;BME280;66022;50.448;18.122;2022-12-24T01:06:17;98038.94;;;5.94;92.01
62703;BME280;66022;50.448;18.122;2022-12-24T01:09:59;98041.18;;;5.96;91.48
62703;BME280;66022;50.448;18.122;2022-12-24T01:13:59;98044.83;;;5.97;96.33
62703;BME280;66022;50.448;18.122;2022-12-24T01:17:59;98048.44;;;6.00;93.37
62703;BME280;66022;50.448;18.122;2022-12-24T01:21:59;98056.37;;;6.03;92.52
62703;BME280;66022;50.448;18.122;2022-12-24T01:25:59;98060.36;;;6.06;93.12
62703;BME280;66022;50.448;18.122;2022-12-24T01:29:59;98063.87;;;6.10;92.12
62703;BME280;66022;50.448;18.122;2022-12-24T01:33:59;98063.62;;;6.13;95.87
62703;BME280;66022;50.448;18.122;2022-12-24T01:37:59;98060.96;;;6.17;92.44
62703;BME280;66022;50.448;18.122;2022-12-24T01:41:59;98056.47;;;6.19;92.75
62703;BME280;66022;50.448;18.122;2022-12-24T01:46:17;98050.95;;;6.20;93.93
62703;BME280;66022;50.448;18.122;2022-12-24T01:50:00;98049.14;;;6.22;92.85
62703;BME280;66022;50.448;18.122;2022-12-24T01:54:00;98049.78;;;6.24;95.85
62703;BME280;66022;50.448;18.122;2022-12-24T01:57:59;98047.78;;;6.27;92.02
62703;BME280;66022;50.448;18.122;2022-12-24T02:01:59;98046.15;;;6.29;92.43
62703;BME280;66022;50.448;18.122;2022-12-24T02:05:59;98045.83;;;6.29;91.85
62703;BME280;66022;50.448;18.122;2022-12-24T02:10:00;98047.05;;;6.30;91.27
62703;BME280;66022;50.448;18.122;2022-12-24T02:13:59;98050.06;;;6.29;94.83
62703;BME280;66022;50.448;18.122;2022-12-24T02:18:04;98053.20;;;6.31;91.50
62703;BME280;66022;50.448;18.122;2022-12-24T02:22:04;98054.50;;;6.32;90.65
62703;BME280;66022;50.448;18.122;2022-12-24T02:26:46;98055.26;;;6.32;92.15
62703;BME280;66022;50.448;18.122;2022-12-24T02:30:04;98055.16;;;6.33;91.72
62703;BME280;66022;50.448;18.122;2022-12-24T02:38:04;98057.15;;;6.36;90.99
62703;BME280;66022;50.448;18.122;2022-12-24T02:41:59;98057.31;;;6.37;91.58
62703;BME280;66022;50.448;18.122;2022-12-24T02:46:00;98058.44;;;6.35;92.02
62703;BME280;66022;50.448;18.122;2022-12-24T02:50:02;98059.59;;;6.36;90.77
62703;BME280;66022;50.448;18.122;2022-12-24T02:53:59;98062.03;;;6.35;93.71
62703;BME280;66022;50.448;18.122;2022-12-24T02:58:06;98064.90;;;6.37;90.35
62703;BME280;66022;50.448;18.122;2022-12-24T03:06:00;98070.75;;;6.39;90.16
62703;BME280;66022;50.448;18.122;2022-12-24T03:10:02;98073.77;;;6.42;89.71
62703;BME280;66022;50.448;18.122;2022-12-24T03:13:59;98079.89;;;6.42;92.49
62703;BME280;66022;50.448;18.122;2022-12-24T03:17:59;98083.76;;;6.44;89.30
62703;BME280;66022;50.448;18.122;2022-12-24T03:21:59;98086.35;;;6.44;88.62
62703;BME280;66022;50.448;18.122;2022-12-24T03:25:59;98086.49;;;6.45;89.04
62703;BME280;66022;50.448;18.122;2022-12-24T03:29:59;98087.36;;;6.46;88.27
62703;BME280;66022;50.448;18.122;2022-12-24T03:33:59;98088.95;;;6.46;90.94
62703;BME280;66022;50.448;18.122;2022-12-24T03:37:59;98092.89;;;6.46;88.35
62703;BME280;66022;50.448;18.122;2022-12-24T03:41:59;98096.70;;;6.46;87.99
62703;BME280;66022;50.448;18.122;2022-12-24T03:46:02;98101.78;;;6.44;90.07
62703;BME280;66022;50.448;18.122;2022-12-24T03:49:59;98104.74;;;6.41;88.58
62703;BME280;66022;50.448;18.122;2022-12-24T03:53:59;98107.68;;;6.37;91.63
62703;BME280;66022;50.448;18.122;2022-12-24T03:57:59;98110.13;;;6.37;88.49
62703;BME280;66022;50.448;18.122;2022-12-24T04:01:59;98112.09;;;6.35;88.38
62703;BME280;66022;50.448;18.122;2022-12-24T04:06:02;98115.08;;;6.31;89.06
62703;BME280;66022;50.448;18.122;2022-12-24T04:09:59;98116.67;;;6.31;88.47
62703;BME280;66022;50.448;18.122;2022-12-24T04:13:59;98118.63;;;6.29;90.76
62703;BME280;66022;50.448;18.122;2022-12-24T04:17:59;98119.61;;;6.31;88.12
62703;BME280;66022;50.448;18.122;2022-12-24T04:21:59;98120.33;;;6.32;87.84
62703;BME280;66022;50.448;18.122;2022-12-24T04:25:59;98120.34;;;6.31;88.18
62703;BME280;66022;50.448;18.122;2022-12-24T04:29:59;98121.34;;;6.31;87.59
62703;BME280;66022;50.448;18.122;2022-12-24T04:33:59;98120.87;;;6.30;90.06
62703;BME280;66022;50.448;18.122;2022-12-24T04:37:59;98121.70;;;6.31;87.37
62703;BME280;66022;50.448;18.122;2022-12-24T04:41:59;98123.33;;;6.32;87.06
62703;BME280;66022;50.448;18.122;2022-12-24T04:49:59;98124.08;;;6.32;87.18
62703;BME280;66022;50.448;18.122;2022-12-24T04:53:59;98123.72;;;6.29;89.57
62703;BME280;66022;50.448;18.122;2022-12-24T04:57:59;98122.57;;;6.25;87.36
62703;BME280;66022;50.448;18.122;2022-12-24T05:01:59;98121.98;;;6.21;86.82
62703;BME280;66022;50.448;18.122;2022-12-24T05:09:59;98124.77;;;6.13;86.84
62703;BME280;66022;50.448;18.122;2022-12-24T05:13:59;98126.92;;;6.09;90.01
62703;BME280;66022;50.448;18.122;2022-12-24T05:17:59;98128.99;;;6.11;87.18
62703;BME280;66022;50.448;18.122;2022-12-24T05:21:59;98131.56;;;6.11;86.60
62703;BME280;66022;50.448;18.122;2022-12-24T05:25:59;98134.29;;;6.08;87.67
62703;BME280;66022;50.448;18.122;2022-12-24T05:29:59;98136.33;;;6.07;87.26
62703;BME280;66022;50.448;18.122;2022-12-24T05:33:59;98139.03;;;6.04;90.12
62703;BME280;66022;50.448;18.122;2022-12-24T05:37:59;98141.12;;;6.05;87.47
62703;BME280;66022;50.448;18.122;2022-12-24T05:41:59;98142.75;;;6.06;87.37
62703;BME280;66022;50.448;18.122;2022-12-24T05:45:59;98144.17;;;6.07;87.92
62703;BME280;66022;50.448;18.122;2022-12-24T05:49:59;98146.36;;;6.09;87.14
62703;BME280;66022;50.448;18.122;2022-12-24T05:53:59;98150.27;;;6.09;90.00
62703;BME280;66022;50.448;18.122;2022-12-24T05:57:59;98153.56;;;6.12;87.53
62703;BME280;66022;50.448;18.122;2022-12-24T06:01:59;98156.94;;;6.13;87.16
62703;BME280;66022;50.448;18.122;2022-12-24T06:06:03;98160.91;;;6.12;87.25
62703;BME280;66022;50.448;18.122;2022-12-24T06:09:59;98164.81;;;6.12;86.64
62703;BME280;66022;50.448;18.122;2022-12-24T06:13:59;98167.13;;;6.09;90.55
62703;BME280;66022;50.448;18.122;2022-12-24T06:17:59;98171.37;;;6.10;88.30
62703;BME280;66022;50.448;18.122;2022-12-24T06:21:59;98174.57;;;6.11;88.51
62703;BME280;66022;50.448;18.122;2022-12-24T06:26:00;98177.40;;;6.12;89.44
62703;BME280;66022;50.448;18.122;2022-12-24T06:29:59;98181.56;;;6.16;87.93
62703;BME280;66022;50.448;18.122;2022-12-24T06:33:59;98186.55;;;6.18;91.39
62703;BME280;66022;50.448;18.122;2022-12-24T06:37:59;98192.53;;;6.21;88.56
62703;BME280;66022;50.448;18.122;2022-12-24T06:42:00;98197.99;;;6.24;88.17
62703;BME280;66022;50.448;18.122;2022-12-24T06:46:00;98204.44;;;6.27;89.42
62703;BME280;66022;50.448;18.122;2022-12-24T06:49:59;98209.92;;;6.32;88.44
62703;BME280;66022;50.448;18.122;2022-12-24T06:53:59;98215.61;;;6.35;91.89
62703;BME280;66022;50.448;18.122;2022-12-24T06:57:59;98219.98;;;6.41;88.89
62703;BME280;66022;50.448;18.122;2022-12-24T07:01:59;98222.13;;;6.46;88.74
62703;BME280;66022;50.448;18.122;2022-12-24T07:05:59;98225.25;;;6.51;89.50
62703;BME280;66022;50.448;18.122;2022-12-24T07:09:59;98227.52;;;6.58;88.16
62703;BME280;66022;50.448;18.122;2022-12-24T07:13:59;98231.67;;;6.62;91.09
62703;BME280;66022;50.448;18.122;2022-12-24T07:17:59;98236.07;;;6.67;88.28
62703;BME280;66022;50.448;18.122;2022-12-24T07:21:59;98240.83;;;6.71;87.65
62703;BME280;66022;50.448;18.122;2022-12-24T07:26:00;98243.85;;;6.74;87.72
62703;BME280;66022;50.448;18.122;2022-12-24T07:30:00;98247.73;;;6.80;86.90
62703;BME280;66022;50.448;18.122;2022-12-24T07:34:00;98252.09;;;6.82;89.67
62703;BME280;66022;50.448;18.122;2022-12-24T07:38:01;98257.30;;;6.88;87.68
62703;BME280;66022;50.448;18.122;2022-12-24T07:42:00;98263.20;;;6.96;88.29
62703;BME280;66022;50.448;18.122;2022-12-24T07:45:59;98268.05;;;7.03;89.48
62703;BME280;66022;50.448;18.122;2022-12-24T07:49:59;98272.44;;;7.12;90.15
62703;BME280;66022;50.448;18.122;2022-12-24T07:53:59;98275.81;;;7.20;94.28
62703;BME280;66022;50.448;18.122;2022-12-24T07:57:59;98278.36;;;7.32;91.18
62703;BME280;66022;50.448;18.122;2022-12-24T08:01:59;98280.69;;;7.43;91.17
62703;BME280;66022;50.448;18.122;2022-12-24T08:05:59;98285.38;;;7.56;90.90
62703;BME280;66022;50.448;18.122;2022-12-24T08:09:59;98289.95;;;7.69;89.79
62703;BME280;66022;50.448;18.122;2022-12-24T08:13:59;98295.21;;;7.82;92.34
62703;BME280;66022;50.448;18.122;2022-12-24T08:17:59;98300.21;;;7.96;90.22
62703;BME280;66022;50.448;18.122;2022-12-24T08:22:00;98305.55;;;8.08;89.20
62703;BME280;66022;50.448;18.122;2022-12-24T08:26:05;98312.86;;;8.20;89.74
62703;BME280;66022;50.448;18.122;2022-12-24T08:30:00;98317.90;;;8.31;88.53
62703;BME280;66022;50.448;18.122;2022-12-24T08:34:05;98323.99;;;8.41;89.86
62703;BME280;66022;50.448;18.122;2022-12-24T08:38:00;98328.91;;;8.54;87.77
62703;BME280;66022;50.448;18.122;2022-12-24T08:42:00;98334.28;;;8.65;87.20
62703;BME280;66022;50.448;18.122;2022-12-24T08:46:03;98341.09;;;8.75;87.51
62703;BME280;66022;50.448;18.122;2022-12-24T08:50:00;98345.75;;;8.85;86.88
62703;BME280;66022;50.448;18.122;2022-12-24T08:54:00;98351.98;;;8.92;87.92
62703;BME280;66022;50.448;18.122;2022-12-24T08:58:02;98357.69;;;9.01;87.15
62703;BME280;66022;50.448;18.122;2022-12-24T09:06:01;98367.13;;;9.15;86.83
62703;BME280;66022;50.448;18.122;2022-12-24T09:54:57;98421.79;;;9.53;87.47
62703;BME280;66022;50.448;18.122;2022-12-24T10:03:04;98432.86;;;9.55;87.09
62703;BME280;66022;50.448;18.122;2022-12-24T10:35:41;98482.36;;;9.52;87.10
62703;BME280;66022;50.448;18.122;2022-12-24T10:51:55;98503.33;;;9.68;85.15
62703;BME280;66022;50.448;18.122;2022-12-24T10:59:55;98518.77;;;9.85;84.52
62703;BME280;66022;50.448;18.122;2022-12-24T12:09:40;98625.51;;;9.84;88.30
62703;BME280;66022;50.448;18.122;2022-12-24T12:17:52;98638.29;;;9.80;88.05
62703;BME280;66022;50.448;18.122;2022-12-24T12:21:50;98643.97;;;9.78;88.80
62703;BME280;66022;50.448;18.122;2022-12-24T12:29:49;98653.20;;;9.75;87.88
62703;BME280;66022;50.448;18.122;2022-12-24T12:37:50;98666.80;;;9.72;87.45
62703;BME280;66022;50.448;18.122;2022-12-24T13:06:20;98719.76;;;9.61;86.24
62703;BME280;66022;50.448;18.122;2022-12-24T13:18:15;98741.87;;;9.62;85.50
62703;BME280;66022;50.448;18.122;2022-12-24T13:22:16;98749.87;;;9.65;87.86
62703;BME280;66022;50.448;18.122;2022-12-24T13:26:11;98757.54;;;9.69;85.56
62703;BME280;66022;50.448;18.122;2022-12-24T13:34:31;98773.08;;;9.78;84.73
62703;BME280;66022;50.448;18.122;2022-12-24T13:42:11;98788.79;;;9.84;84.32
62703;BME280;66022;50.448;18.122;2022-12-24T13:46:36;98796.89;;;9.85;85.26
62703;BME280;66022;50.448;18.122;2022-12-24T13:54:11;98813.79;;;9.84;85.10
62703;BME280;66022;50.448;18.122;2022-12-24T13:58:13;98821.98;;;9.82;85.41
62703;BME280;66022;50.448;18.122;2022-12-24T14:10:18;98837.43;;;9.78;84.72
62703;BME280;66022;50.448;18.122;2022-12-24T14:14:11;98841.52;;;9.76;85.06
62703;BME280;66022;50.448;18.122;2022-12-24T14:18:15;98845.15;;;9.74;85.04
62703;BME280;66022;50.448;18.122;2022-12-24T14:22:18;98848.33;;;9.72;84.89
62703;BME280;66022;50.448;18.122;2022-12-24T14:26:15;98851.45;;;9.69;85.62
62703;BME280;66022;50.448;18.122;2022-12-24T14:34:15;98856.37;;;9.66;85.04
62703;BME280;66022;50.448;18.122;2022-12-24T14:38:14;98859.93;;;9.64;85.03
62703;BME280;66022;50.448;18.122;2022-12-24T14:46:56;98869.65;;;9.61;85.38
62703;BME280;66022;50.448;18.122;2022-12-24T16:12:02;98984.83;;;8.98;85.36
62703;BME280;66022;50.448;18.122;2022-12-24T16:16:03;98988.83;;;8.94;86.84
62703;BME280;66022;50.448;18.122;2022-12-24T16:20:04;98994.12;;;8.93;84.74
62703;BME280;66022;50.448;18.122;2022-12-24T16:24:05;98998.36;;;8.91;84.63
62703;BME280;66022;50.448;18.122;2022-12-24T16:28:03;99002.59;;;8.89;84.83
62703;BME280;66022;50.448;18.122;2022-12-24T16:32:02;99009.29;;;8.89;84.26
62703;BME280;66022;50.448;18.122;2022-12-24T16:36:02;99016.22;;;8.87;86.18
62703;BME280;66022;50.448;18.122;2022-12-24T16:40:02;99021.26;;;8.86;84.04
62703;BME280;66022;50.448;18.122;2022-12-24T16:44:02;99026.53;;;8.86;83.89
62703;BME280;66022;50.448;18.122;2022-12-24T16:48:02;99030.83;;;8.84;84.56
62703;BME280;66022;50.448;18.122;2022-12-24T16:52:02;99035.71;;;8.83;83.48
62703;BME280;66022;50.448;18.122;2022-12-24T16:56:02;99038.75;;;8.82;84.66
62703;BME280;66022;50.448;18.122;2022-12-24T17:00:03;99043.00;;;8.83;83.46
62703;BME280;66022;50.448;18.122;2022-12-24T17:04:02;99047.27;;;8.83;83.28
62703;BME280;66022;50.448;18.122;2022-12-24T17:08:02;99049.88;;;8.83;83.61
62703;BME280;66022;50.448;18.122;2022-12-24T17:12:02;99050.86;;;8.85;83.26
62703;BME280;66022;50.448;18.122;2022-12-24T17:16:02;99052.55;;;8.84;84.21
62703;BME280;66022;50.448;18.122;2022-12-24T17:20:02;99054.94;;;8.86;83.76
62703;BME280;66022;50.448;18.122;2022-12-24T17:24:02;99056.45;;;8.85;84.35
62703;BME280;66022;50.448;18.122;2022-12-24T17:28:02;99058.48;;;8.81;84.12
62703;BME280;66022;50.448;18.122;2022-12-24T17:32:02;99060.79;;;8.77;83.60
62703;BME280;66022;50.448;18.122;2022-12-24T17:36:02;99064.31;;;8.73;84.79
62703;BME280;66022;50.448;18.122;2022-12-24T17:40:02;99066.25;;;8.71;83.58
62703;BME280;66022;50.448;18.122;2022-12-24T17:44:02;99068.01;;;8.66;83.58
62703;BME280;66022;50.448;18.122;2022-12-24T17:48:02;99071.03;;;8.62;83.79
62703;BME280;66022;50.448;18.122;2022-12-24T17:52:02;99075.94;;;8.60;83.73
62703;BME280;66022;50.448;18.122;2022-12-24T17:56:02;99082.73;;;8.53;86.11
62703;BME280;66022;50.448;18.122;2022-12-24T18:00:02;99088.14;;;8.50;83.46
62703;BME280;66022;50.448;18.122;2022-12-24T18:04:02;99092.55;;;8.47;82.88
62703;BME280;66022;50.448;18.122;2022-12-24T18:08:02;99098.60;;;8.46;82.65
62703;BME280;66022;50.448;18.122;2022-12-24T18:12:02;99101.93;;;8.47;82.75
62703;BME280;66022;50.448;18.122;2022-12-24T18:16:02;99106.03;;;8.46;84.66
62703;BME280;66022;50.448;18.122;2022-12-24T18:20:09;99111.38;;;8.48;83.43
62703;BME280;66022;50.448;18.122;2022-12-24T18:24:07;99115.62;;;8.48;82.68
62703;BME280;66022;50.448;18.122;2022-12-24T18:28:02;99120.42;;;8.49;82.27
62703;BME280;66022;50.448;18.122;2022-12-24T18:32:04;99125.62;;;8.51;82.60
62703;BME280;66022;50.448;18.122;2022-12-24T18:36:02;99132.67;;;8.51;85.79
62703;BME280;66022;50.448;18.122;2022-12-24T18:40:02;99137.78;;;8.51;84.31
62703;BME280;66022;50.448;18.122;2022-12-24T18:44:02;99143.06;;;8.50;84.07
62703;BME280;66022;50.448;18.122;2022-12-24T18:48:02;99146.08;;;8.46;83.48
62703;BME280;66022;50.448;18.122;2022-12-24T18:52:03;99150.55;;;8.43;83.43
62703;BME280;66022;50.448;18.122;2022-12-24T18:56:03;99154.53;;;8.38;84.97
62703;BME280;66022;50.448;18.122;2022-12-24T19:00:03;99157.34;;;8.34;83.72
62703;BME280;66022;50.448;18.122;2022-12-24T19:04:02;99158.67;;;8.30;83.46
62703;BME280;66022;50.448;18.122;2022-12-24T19:08:02;99159.72;;;8.25;83.08
62703;BME280;66022;50.448;18.122;2022-12-24T19:12:02;99161.86;;;8.24;82.94
62703;BME280;66022;50.448;18.122;2022-12-24T19:16:05;99166.13;;;8.23;84.91
62703;BME280;66022;50.448;18.122;2022-12-24T19:20:02;99168.98;;;8.23;84.38
62703;BME280;66022;50.448;18.122;2022-12-24T19:24:02;99171.59;;;8.22;82.89
62703;BME280;66022;50.448;18.122;2022-12-24T19:28:02;99175.20;;;8.21;83.00
62703;BME280;66022;50.448;18.122;2022-12-24T19:32:02;99176.23;;;8.20;82.41
62703;BME280;66022;50.448;18.122;2022-12-24T19:36:08;99179.02;;;8.17;85.49
62703;BME280;66022;50.448;18.122;2022-12-24T19:40:02;99181.87;;;8.16;83.71
62703;BME280;66022;50.448;18.122;2022-12-24T19:44:02;99186.33;;;8.15;83.74
62703;BME280;66022;50.448;18.122;2022-12-24T19:48:02;99190.13;;;8.12;84.51
62703;BME280;66022;50.448;18.122;2022-12-24T19:52:02;99194.41;;;8.11;83.76
62703;BME280;66022;50.448;18.122;2022-12-24T19:56:02;99198.22;;;8.07;85.14
62703;BME280;66022;50.448;18.122;2022-12-24T20:00:03;99201.95;;;8.04;84.11
62703;BME280;66022;50.448;18.122;2022-12-24T20:04:02;99206.68;;;8.02;83.85
62703;BME280;66022;50.448;18.122;2022-12-24T20:08:02;99210.74;;;7.98;84.71
62703;BME280;66022;50.448;18.122;2022-12-24T20:12:02;99214.18;;;7.96;84.34
62703;BME280;66022;50.448;18.122;2022-12-24T20:16:06;99218.34;;;7.92;86.03
62703;BME280;66022;50.448;18.122;2022-12-24T20:20:02;99222.71;;;7.91;84.63
62703;BME280;66022;50.448;18.122;2022-12-24T20:24:02;99228.42;;;7.89;84.50
62703;BME280;66022;50.448;18.122;2022-12-24T20:28:02;99233.65;;;7.84;84.98
62703;BME280;66022;50.448;18.122;2022-12-24T20:32:03;99239.20;;;7.81;84.81
62703;BME280;66022;50.448;18.122;2022-12-24T20:36:02;99243.70;;;7.76;86.68
62703;BME280;66022;50.448;18.122;2022-12-24T20:40:03;99247.22;;;7.75;85.06
62703;BME280;66022;50.448;18.122;2022-12-24T20:44:02;99251.08;;;7.74;90.24
62703;BME280;66022;50.448;18.122;2022-12-24T20:48:03;99252.08;;;7.75;85.07
62703;BME280;66022;50.448;18.122;2022-12-24T20:52:02;99254.38;;;7.78;84.59
62703;BME280;66022;50.448;18.122;2022-12-24T20:56:02;99256.55;;;7.79;87.08
62703;BME280;66022;50.448;18.122;2022-12-24T21:00:02;99259.38;;;7.81;85.49
62703;BME280;66022;50.448;18.122;2022-12-24T21:04:02;99262.06;;;7.81;85.79
62703;BME280;66022;50.448;18.122;2022-12-24T21:08:02;99266.67;;;7.79;86.46
62703;BME280;66022;50.448;18.122;2022-12-24T21:12:02;99270.93;;;7.78;86.10
62703;BME280;66022;50.448;18.122;2022-12-24T21:16:02;99275.72;;;7.76;88.18
62703;BME280;66022;50.448;18.122;2022-12-24T21:20:03;99278.30;;;7.78;86.15
62703;BME280;66022;50.448;18.122;2022-12-24T21:24:02;99282.40;;;7.79;86.16
62703;BME280;66022;50.448;18.122;2022-12-24T21:28:02;99284.74;;;7.79;86.61
62703;BME280;66022;50.448;18.122;2022-12-24T21:32:02;99286.54;;;7.81;86.19
62703;BME280;66022;50.448;18.122;2022-12-24T21:36:02;99289.06;;;7.80;88.48
62703;BME280;66022;50.448;18.122;2022-12-24T21:40:03;99294.30;;;7.82;86.71
62703;BME280;66022;50.448;18.122;2022-12-24T21:44:02;99300.01;;;7.83;86.68
62703;BME280;66022;50.448;18.122;2022-12-24T21:48:02;99304.67;;;7.82;86.92
62703;BME280;66022;50.448;18.122;2022-12-24T21:52:02;99308.94;;;7.84;86.26
62703;BME280;66022;50.448;18.122;2022-12-24T21:56:06;99312.13;;;7.83;88.96
62703;BME280;66022;50.448;18.122;2022-12-24T22:00:02;99315.12;;;7.85;86.32
62703;BME280;66022;50.448;18.122;2022-12-24T22:04:02;99317.78;;;7.87;86.30
62703;BME280;66022;50.448;18.122;2022-12-24T22:08:02;99321.11;;;7.86;87.00
62703;BME280;66022;50.448;18.122;2022-12-24T22:12:02;99323.53;;;7.87;86.39
62703;BME280;66022;50.448;18.122;2022-12-24T22:16:02;99323.55;;;7.85;89.01
62703;BME280;66022;50.448;18.122;2022-12-24T22:20:02;99323.13;;;7.86;86.71
62703;BME280;66022;50.448;18.122;2022-12-24T22:24:04;99322.56;;;7.85;86.24
62703;BME280;66022;50.448;18.122;2022-12-24T22:28:05;99323.07;;;7.84;86.68
62703;BME280;66022;50.448;18.122;2022-12-24T22:32:02;99322.91;;;7.83;86.15
62703;BME280;66022;50.448;18.122;2022-12-24T22:36:03;99321.42;;;7.80;88.54
62703;BME280;66022;50.448;18.122;2022-12-24T22:40:02;99320.28;;;7.79;86.69
62703;BME280;66022;50.448;18.122;2022-12-24T22:44:02;99319.47;;;7.77;86.39
62703;BME280;66022;50.448;18.122;2022-12-24T22:48:02;99320.00;;;7.75;86.51
62703;BME280;66022;50.448;18.122;2022-12-24T22:52:02;99320.56;;;7.74;85.85
62703;BME280;66022;50.448;18.122;2022-12-24T22:56:02;99320.61;;;7.70;87.81
62703;BME280;66022;50.448;18.122;2022-12-24T23:00:06;99322.31;;;7.68;85.62
62703;BME280;66022;50.448;18.122;2022-12-24T23:04:02;99323.01;;;7.65;85.67
62703;BME280;66022;50.448;18.122;2022-12-24T23:08:03;99324.05;;;7.59;85.88
62703;BME280;66022;50.448;18.122;2022-12-24T23:12:03;99325.67;;;7.56;85.20
62703;BME280;66022;50.448;18.122;2022-12-24T23:16:03;99328.92;;;7.49;87.09
62703;BME280;66022;50.448;18.122;2022-12-24T23:20:02;99331.88;;;7.44;84.90
62703;BME280;66022;50.448;18.122;2022-12-24T23:24:02;99335.63;;;7.38;84.81
62703;BME280;66022;50.448;18.122;2022-12-24T23:28:02;99340.17;;;7.30;85.54
62703;BME280;66022;50.448;18.122;2022-12-24T23:32:02;99344.92;;;7.24;85.54
62703;BME280;66022;50.448;18.122;2022-12-24T23:36:02;99349.97;;;7.16;87.99
62703;BME280;66022;50.448;18.122;2022-12-24T23:40:02;99354.27;;;7.13;86.75
62703;BME280;66022;50.448;18.122;2022-12-24T23:44:02;99357.54;;;7.09;86.61
62703;BME280;66022;50.448;18.122;2022-12-24T23:48:02;99361.08;;;7.07;87.53
62703;BME280;66022;50.448;18.122;2022-12-24T23:52:02;99366.42;;;7.07;86.93
62703;BME280;66022;50.448;18.122;2022-12-24T23:56:03;99372.96;;;7.05;89.67
